Home   Weather   Stanford   Past weeks
Flag for USA

Past Weather in Stanford, California, USA — Yesterday and Last 2 Weeks

Currently: 59 °F. Clear. (Weather station: San Carlos Airport, USA). See more current weather

Past Weather in Stanford — Graph

°F

Stanford Temperature Yesterday

Maximum temperature yesterday: 86 °F (at 2:55 pm)
Minimum temperature yesterday: 54 °F (at 3:15 am)
Average temperature yesterday: 63 °F

High & Low Weather Summary for the Past Weeks

 TemperatureHumidityPressure
High86 °F (May 10, 2:55 pm)88% (Apr 30, 9:15 pm)30.23 "Hg (Apr 30, 9:15 pm)
Low45 °F (Apr 26, 6:47 am)11% (May 8, 1:50 pm)29.85 "Hg (May 10, 3:55 pm)
Average59 °F63%30.03 "Hg
* Reported Apr 26 6:47 am — May 11 12:35 am, Stanford. Weather by CustomWeather, © 2021

Note: Actual official high and low records may vary slightly from our data, if they occured in-between our weather recording intervals... More about our weather records

Stanford Weather History for the Previous 24 Hours

Scroll right to see more
 ConditionsComfort  
Time TempWeatherWind HumidityBarometerVisibility
12:35 am
Tue, May 11
59 °FClear.No wind72%29.90 "Hg8 mi
12:15 am59 °FClear.3 mph72%29.90 "Hg8 mi
11:55 pm
Mon, May 10
59 °FClear.3 mph72%29.90 "Hg8 mi
11:35 pm61 °FClear.No wind63%29.90 "Hg10 mi
11:15 pm61 °FClear.No wind63%29.90 "Hg10 mi
10:55 pm59 °FPassing clouds.No wind68%29.90 "Hg10 mi
10:35 pm61 °FPassing clouds.5 mph68%29.90 "Hg10 mi
10:15 pm63 °FClear.3 mph59%29.90 "Hg10 mi
9:15 pm66 °FClear.3 mph56%29.88 "Hg10 mi
8:47 pm70 °FClear.6 mph33%29.88 "Hg10 mi
6:54 pm75 °FSunny.14 mph25%29.85 "Hg10 mi
5:58 pm79 °FSunny.15 mph23%29.85 "Hg10 mi
4:54 pm82 °FSunny.13 mph21%29.85 "Hg10 mi
3:55 pm86 °FSunny.13 mph19%29.85 "Hg10 mi
2:55 pm86 °FSunny.10 mph18%29.87 "Hg10 mi
1:53 pm82 °FSunny.7 mph23%29.88 "Hg10 mi
12:47 pm81 °FSunny.6 mph23%29.89 "Hg10 mi
11:47 am75 °FSunny.No wind31%29.90 "Hg10 mi
10:52 am73 °FSunny.6 mph38%29.91 "Hg10 mi
9:47 am64 °FSunny.3 mph73%29.92 "Hg10 mi
7:47 am57 °FSunny.No wind77%29.90 "Hg10 mi
6:55 am54 °FSunny.No wind82%29.88 "Hg7 mi
6:35 am54 °FSunny.No wind82%29.88 "Hg8 mi
5:35 am54 °FClear.No wind77%29.88 "Hg10 mi
5:15 am54 °FPassing clouds.No wind77%29.88 "Hg9 mi
4:55 am54 °FPassing clouds.No wind77%29.88 "Hg9 mi
4:35 am54 °FPassing clouds.3 mph77%29.88 "Hg9 mi
4:15 am54 °FPassing clouds.No wind77%29.88 "Hg10 mi
3:55 am54 °FPassing clouds.No wind77%29.88 "Hg9 mi
3:35 am54 °FClear.3 mph77%29.88 "Hg10 mi
3:15 am54 °FPassing clouds.3 mph77%29.88 "Hg10 mi
2:55 am55 °FPassing clouds.No wind72%29.87 "Hg10 mi
2:35 am55 °FClear.No wind67%29.87 "Hg10 mi
2:15 am55 °FClear.No wind67%29.88 "Hg10 mi
1:55 am55 °FClear.3 mph72%29.88 "Hg10 mi
1:35 am55 °FClear.7 mph72%29.88 "Hg9 mi
1:15 am55 °FClear.3 mph72%29.88 "Hg10 mi
Weather by CustomWeather, © 2021

See weather overview